createdAt,value
2023-02-16T00:00:27.997Z,101789.16
2023-02-16T00:04:31.112Z,101808.19
2023-02-16T00:08:32.661Z,101792.84
2023-02-16T00:12:52.726Z,101805.47
2023-02-16T00:16:56.552Z,101790.31
2023-02-16T00:20:58.108Z,101789.44
2023-02-16T00:24:59.660Z,101790.31
2023-02-16T00:29:01.747Z,101788.22
2023-02-16T00:33:13.830Z,101785.38
2023-02-16T00:37:15.416Z,101794.31
2023-02-16T00:41:39.362Z,101799.97
2023-02-16T00:45:41.198Z,101793.00
2023-02-16T00:49:42.845Z,101793.00
2023-02-16T00:53:44.383Z,101796.56
2023-02-16T00:57:51.281Z,101794.31
2023-02-16T01:01:52.957Z,101793.84
2023-02-16T01:06:15.486Z,101795.75
2023-02-16T01:10:37.435Z,101801.69
2023-02-16T01:14:39.104Z,101797.56
2023-02-16T01:18:40.939Z,101791.94
2023-02-16T01:22:42.478Z,101795.34
2023-02-16T01:26:48.948Z,101791.03
2023-02-16T01:30:51.670Z,101781.66
2023-02-16T01:34:53.279Z,101791.31
2023-02-16T01:38:54.777Z,101803.31
2023-02-16T01:43:14.734Z,101796.34
2023-02-16T01:47:26.021Z,101777.06
2023-02-16T01:51:50.573Z,101790.72
2023-02-16T01:55:58.160Z,101783.00
2023-02-16T02:00:38.398Z,101780.25
2023-02-16T02:05:11.979Z,101767.53
2023-02-16T02:09:23.110Z,101753.31
2023-02-16T02:13:53.516Z,101740.38
2023-02-16T02:17:56.196Z,101750.03
2023-02-16T02:22:40.675Z,101750.81
2023-02-16T02:27:01.037Z,101752.63
2023-02-16T02:31:21.647Z,101750.69
2023-02-16T02:35:39.550Z,101744.63
2023-02-16T02:40:22.406Z,101756.03
2023-02-16T02:44:26.925Z,101746.63
2023-02-16T02:48:32.948Z,101751.84
2023-02-16T02:52:34.973Z,101744.53
2023-02-16T02:56:56.405Z,101738.19
2023-02-16T03:00:59.240Z,101738.19
2023-02-16T03:05:03.420Z,101746.50
2023-02-16T03:09:12.400Z,101740.69
2023-02-16T03:13:20.607Z,101736.97
2023-02-16T03:17:56.892Z,101736.53
2023-02-16T03:22:18.354Z,101739.31
2023-02-16T03:26:38.551Z,101729.09
2023-02-16T03:30:42.130Z,101739.94
2023-02-16T03:34:44.041Z,101740.19
2023-02-16T03:38:45.566Z,101747.88
2023-02-16T03:42:51.435Z,101751.56
2023-02-16T03:46:53.156Z,101742.91
2023-02-16T03:50:54.672Z,101740.03
2023-02-16T03:54:56.161Z,101737.03
2023-02-16T03:58:57.743Z,101750.25
2023-02-16T04:02:59.260Z,101748.66
2023-02-16T04:07:01.181Z,101757.50
2023-02-16T04:11:22.940Z,101747.81
2023-02-16T04:15:26.953Z,101749.13
2023-02-16T04:19:28.568Z,101742.69
2023-02-16T04:23:30.104Z,101749.81
2023-02-16T04:27:31.601Z,101752.63
2023-02-16T04:31:33.317Z,101757.66
2023-02-16T04:35:35.553Z,101741.75
2023-02-16T04:39:37.756Z,101746.78
2023-02-16T04:43:39.321Z,101748.44
2023-02-16T04:47:40.917Z,101752.19
2023-02-16T04:51:42.483Z,101748.84
2023-02-16T04:55:46.954Z,101743.31
2023-02-16T04:59:48.475Z,101746.53
2023-02-16T05:03:50.733Z,101743.22
2023-02-16T05:07:52.521Z,101752.34
2023-02-16T05:12:12.470Z,101751.56
2023-02-16T05:16:14.064Z,101744.41
2023-02-16T05:20:15.694Z,101744.41
2023-02-16T05:24:17.348Z,101742.50
2023-02-16T05:28:18.941Z,101730.00
2023-02-16T05:32:21.026Z,101736.41
2023-02-16T05:36:23.068Z,101735.19
2023-02-16T05:40:24.566Z,101736.69
2023-02-16T05:44:26.226Z,101751.84
2023-02-16T05:48:27.715Z,101762.38
2023-02-16T05:52:29.250Z,101762.03
2023-02-16T05:56:31.099Z,101753.84
2023-02-16T06:00:33.655Z,101756.22
2023-02-16T06:04:35.563Z,101759.63
2023-02-16T06:08:37.354Z,101751.44
2023-02-16T06:12:38.895Z,101745.91
2023-02-16T06:16:42.194Z,101750.19
2023-02-16T06:20:44.204Z,101766.13
2023-02-16T06:24:45.744Z,101775.97
2023-02-16T06:28:47.329Z,101772.00
2023-02-16T06:32:49.393Z,101786.16
2023-02-16T06:36:50.926Z,101781.44
2023-02-16T06:40:53.228Z,101788.38
2023-02-16T06:44:54.760Z,101777.03
2023-02-16T06:48:56.310Z,101778.97
2023-02-16T06:52:57.894Z,101787.56
2023-02-16T06:56:59.471Z,101787.84
2023-02-16T07:01:01.045Z,101788.53
2023-02-16T07:05:03.206Z,101793.72
2023-02-16T07:09:04.739Z,101793.09
2023-02-16T07:13:06.277Z,101794.88
2023-02-16T07:17:07.820Z,101799.44
2023-02-16T07:21:09.460Z,101810.09
2023-02-16T07:25:10.976Z,101807.72
2023-02-16T07:29:13.094Z,101804.03
2023-02-16T07:33:16.049Z,101803.88
2023-02-16T07:37:17.681Z,101804.41
2023-02-16T07:41:19.292Z,101810.03
2023-02-16T07:45:20.946Z,101805.63
2023-02-16T07:49:22.492Z,101801.88
2023-02-16T07:53:24.124Z,101798.72
2023-02-16T07:57:27.397Z,101791.66
2023-02-16T08:01:29.976Z,101805.13
2023-02-16T08:05:31.518Z,101803.13
2023-02-16T08:09:34.115Z,101802.25
2023-02-16T08:13:35.776Z,101808.19
2023-02-16T08:17:37.861Z,101808.44
2023-02-16T08:21:39.721Z,101812.28
2023-02-16T08:25:41.350Z,101808.09
2023-02-16T08:29:42.951Z,101797.09
2023-02-16T08:33:45.662Z,101807.22
2023-02-16T08:37:47.184Z,101806.31
2023-02-16T08:41:50.192Z,101795.84
2023-02-16T08:45:51.832Z,101798.38
2023-02-16T08:49:53.501Z,101789.97
2023-02-16T08:53:55.962Z,101801.66
2023-02-16T08:57:58.626Z,101798.34
2023-02-16T09:02:01.081Z,101795.22
2023-02-16T09:06:05.617Z,101806.47
2023-02-16T09:10:07.839Z,101791.91
2023-02-16T09:14:10.390Z,101807.06
2023-02-16T09:18:12.700Z,101811.44
2023-02-16T09:22:15.249Z,101817.69
2023-02-16T09:26:18.185Z,101812.63
2023-02-16T09:30:20.861Z,101798.59
2023-02-16T09:34:23.348Z,101798.50
2023-02-16T09:38:25.474Z,101800.19
2023-02-16T09:42:37.560Z,101785.50
2023-02-16T09:46:41.040Z,101797.44
2023-02-16T09:50:53.978Z,101790.25
2023-02-16T09:55:00.890Z,101792.31
2023-02-16T09:59:22.406Z,101786.63
2023-02-16T10:03:51.960Z,101769.16
2023-02-16T10:08:00.881Z,101780.53
2023-02-16T10:12:10.889Z,101763.81
2023-02-16T10:16:17.174Z,101770.88
2023-02-16T10:20:34.401Z,101750.69
2023-02-16T10:24:55.563Z,101745.44
2023-02-16T10:29:07.050Z,101743.38
2023-02-16T10:33:31.894Z,101752.69
2023-02-16T10:37:36.958Z,101747.41
2023-02-16T10:41:45.665Z,101744.97
2023-02-16T10:45:52.993Z,101740.84
2023-02-16T10:49:55.686Z,101736.81
2023-02-16T10:54:01.955Z,101745.41
2023-02-16T10:58:03.571Z,101722.41
2023-02-16T11:02:27.150Z,101708.69
2023-02-16T11:06:29.165Z,101715.34
2023-02-16T11:10:41.981Z,101707.03
2023-02-16T11:14:56.754Z,101701.31
2023-02-16T11:19:18.601Z,101693.75
2023-02-16T11:23:30.437Z,101694.84
2023-02-16T11:27:31.993Z,101682.66
2023-02-16T11:31:37.674Z,101669.84
2023-02-16T11:35:43.380Z,101659.34
2023-02-16T11:40:28.522Z,101652.47
2023-02-16T11:44:36.938Z,101650.19
2023-02-16T11:48:38.492Z,101630.53
2023-02-16T11:52:40.083Z,101627.59
2023-02-16T11:56:41.682Z,101618.97
2023-02-16T12:01:11.080Z,101618.59
2023-02-16T12:05:43.216Z,101613.88
2023-02-16T12:09:58.990Z,101609.69
2023-02-16T12:14:22.455Z,101609.50
2023-02-16T12:18:31.754Z,101595.75
2023-02-16T12:22:33.274Z,101602.88
2023-02-16T12:26:51.968Z,101591.28
2023-02-16T12:31:25.704Z,101579.94
2023-02-16T12:35:39.413Z,101566.50
2023-02-16T12:40:00.173Z,101566.53
2023-02-16T12:44:13.860Z,101558.75
2023-02-16T12:48:30.550Z,101566.59
2023-02-16T12:52:47.401Z,101553.16
2023-02-16T12:57:01.591Z,101540.44
2023-02-16T13:01:16.075Z,101533.38
2023-02-16T13:05:31.895Z,101523.94
2023-02-16T13:09:58.487Z,101533.69
2023-02-16T13:14:11.819Z,101521.59
2023-02-16T13:18:26.768Z,101514.31
2023-02-16T13:23:13.108Z,101499.53
2023-02-16T13:27:56.542Z,101502.72
2023-02-16T13:32:22.782Z,101493.03
2023-02-16T13:36:52.164Z,101494.41
2023-02-16T13:41:10.312Z,101484.81
2023-02-16T13:45:22.898Z,101480.06
2023-02-16T13:49:33.287Z,101474.75
2023-02-16T13:53:41.613Z,101466.38
2023-02-16T13:58:06.398Z,101458.72
2023-02-16T14:02:13.245Z,101448.88
2023-02-16T14:06:27.815Z,101455.72
2023-02-16T14:10:55.504Z,101454.56
2023-02-16T14:15:00.188Z,101458.50
2023-02-16T14:19:19.562Z,101451.25
2023-02-16T14:23:28.631Z,101456.66
2023-02-16T14:27:51.777Z,101442.00
2023-02-16T14:32:06.470Z,101443.44
2023-02-16T14:36:18.341Z,101438.19
2023-02-16T14:40:40.817Z,101442.19
2023-02-16T14:45:19.711Z,101446.31
2023-02-16T14:49:58.583Z,101451.16
2023-02-16T14:54:14.996Z,101448.63
2023-02-16T14:58:29.116Z,101441.50
2023-02-16T15:02:38.320Z,101439.38
2023-02-16T15:06:45.812Z,101440.09
2023-02-16T15:10:47.632Z,101430.47
2023-02-16T15:14:50.821Z,101433.75
2023-02-16T15:18:55.232Z,101444.69
2023-02-16T15:23:02.527Z,101443.47
2023-02-16T15:27:04.323Z,101443.16
2023-02-16T15:31:18.489Z,101442.19
2023-02-16T15:35:30.663Z,101450.66
2023-02-16T15:39:46.448Z,101445.06
2023-02-16T15:43:58.619Z,101447.22
2023-02-16T15:48:13.319Z,101438.53
2023-02-16T15:52:25.024Z,101432.28
2023-02-16T15:56:34.901Z,101432.03
2023-02-16T16:00:37.023Z,101444.66
2023-02-16T16:04:45.649Z,101437.78
2023-02-16T16:08:47.463Z,101442.03
2023-02-16T16:12:50.701Z,101431.56
2023-02-16T16:16:52.845Z,101431.31
2023-02-16T16:21:02.656Z,101425.97
2023-02-16T16:25:44.764Z,101436.97
2023-02-16T16:29:47.764Z,101442.09
2023-02-16T16:33:55.181Z,101434.41
2023-02-16T16:37:56.896Z,101436.81
2023-02-16T16:42:10.070Z,101439.38
2023-02-16T16:46:26.054Z,101432.25
2023-02-16T16:50:29.667Z,101444.88
2023-02-16T16:54:35.400Z,101443.03
2023-02-16T16:58:37.022Z,101447.03
2023-02-16T17:02:38.843Z,101449.59
2023-02-16T17:06:40.369Z,101451.97
2023-02-16T17:10:42.519Z,101457.75
2023-02-16T17:14:44.043Z,101456.78
2023-02-16T17:18:45.655Z,101473.88
2023-02-16T17:22:47.258Z,101468.75
2023-02-16T17:26:50.074Z,101465.22
2023-02-16T17:30:51.801Z,101466.84
2023-02-16T17:34:53.402Z,101470.28
2023-02-16T17:38:55.080Z,101460.75
2023-02-16T17:42:56.669Z,101465.72
2023-02-16T17:46:58.299Z,101457.06
2023-02-16T17:50:59.975Z,101457.06
2023-02-16T17:55:01.470Z,101464.72
2023-02-16T17:59:03.621Z,101468.25
2023-02-16T18:03:06.019Z,101477.63
2023-02-16T18:07:12.195Z,101470.72
2023-02-16T18:11:14.859Z,101481.75
2023-02-16T18:15:16.535Z,101485.03
2023-02-16T18:19:19.379Z,101473.13
2023-02-16T18:23:20.980Z,101466.84
2023-02-16T18:27:22.560Z,101467.56
2023-02-16T18:31:24.291Z,101466.69
2023-02-16T18:35:25.875Z,101461.50
2023-02-16T18:39:27.532Z,101461.38
2023-02-16T18:43:29.066Z,101464.06
2023-02-16T18:47:30.706Z,101463.94
2023-02-16T18:51:33.574Z,101458.75
2023-02-16T18:55:35.641Z,101456.97
2023-02-16T18:59:37.205Z,101452.56
2023-02-16T19:03:38.805Z,101445.69
2023-02-16T19:07:40.639Z,101443.94
2023-02-16T19:11:42.241Z,101454.97
2023-02-16T19:15:43.837Z,101458.22
2023-02-16T19:19:46.155Z,101456.63
2023-02-16T19:23:47.935Z,101468.88
2023-02-16T19:27:49.500Z,101461.09
2023-02-16T19:31:51.170Z,101475.69
2023-02-16T19:36:10.093Z,101469.88
2023-02-16T19:40:12.490Z,101467.38
2023-02-16T19:44:14.568Z,101469.19
2023-02-16T19:48:16.620Z,101466.63
2023-02-16T19:52:18.301Z,101476.06
2023-02-16T19:56:22.825Z,101475.84
2023-02-16T20:00:24.462Z,101486.28
2023-02-16T20:04:26.472Z,101482.03
2023-02-16T20:08:28.000Z,101499.16
2023-02-16T20:12:29.584Z,101498.47
2023-02-16T20:16:31.426Z,101492.53
2023-02-16T20:20:33.055Z,101496.78
2023-02-16T20:24:34.897Z,101484.69
2023-02-16T20:28:36.703Z,101483.66
2023-02-16T20:32:38.307Z,101474.31
2023-02-16T20:36:39.842Z,101475.19
2023-02-16T20:40:42.145Z,101475.03
2023-02-16T20:44:43.754Z,101480.28
2023-02-16T20:48:46.093Z,101470.94
2023-02-16T20:52:47.873Z,101478.53
2023-02-16T20:56:49.415Z,101470.72
2023-02-16T21:00:51.211Z,101469.75
2023-02-16T21:04:52.817Z,101472.97
2023-02-16T21:08:54.400Z,101464.41
2023-02-16T21:12:56.072Z,101455.06
2023-02-16T21:16:57.764Z,101457.69
2023-02-16T21:21:00.564Z,101446.75
2023-02-16T21:25:02.116Z,101457.94
2023-02-16T21:29:03.824Z,101441.94
2023-02-16T21:33:05.349Z,101446.22
2023-02-16T21:37:06.856Z,101443.84
2023-02-16T21:41:26.377Z,101429.41
2023-02-16T21:45:28.021Z,101432.84
2023-02-16T21:49:29.604Z,101429.47
2023-02-16T21:53:31.243Z,101427.00
2023-02-16T21:57:33.601Z,101422.84
2023-02-16T22:01:38.692Z,101422.84
2023-02-16T22:05:40.232Z,101434.75
2023-02-16T22:09:42.511Z,101434.03
2023-02-16T22:13:44.420Z,101419.56
2023-02-16T22:17:45.970Z,101417.09
2023-02-16T22:21:48.339Z,101405.28
2023-02-16T22:25:49.842Z,101401.03
2023-02-16T22:29:51.964Z,101389.22
2023-02-16T22:34:11.535Z,101388.31
2023-02-16T22:38:13.174Z,101394.25
2023-02-16T22:42:14.758Z,101390.09
2023-02-16T22:46:17.144Z,101402.06
2023-02-16T22:50:18.827Z,101395.38
2023-02-16T22:54:20.680Z,101391.22
2023-02-16T22:58:22.942Z,101386.16
2023-02-16T23:02:24.496Z,101396.50
2023-02-16T23:06:34.781Z,101400.72
2023-02-16T23:10:40.495Z,101411.03
2023-02-16T23:14:42.061Z,101407.59
2023-02-16T23:18:44.405Z,101414.56
2023-02-16T23:22:45.953Z,101411.03
2023-02-16T23:26:47.949Z,101406.09
2023-02-16T23:30:49.538Z,101403.53
2023-02-16T23:34:51.089Z,101412.19
2023-02-16T23:38:52.668Z,101406.09
2023-02-16T23:42:54.436Z,101400.97
2023-02-16T23:46:55.990Z,101391.59
2023-02-16T23:50:58.326Z,101386.50
2023-02-16T23:54:59.939Z,101394.25
2023-02-16T23:59:01.613Z,101389.31
